Terminal Aerodrome Forecast
Issued by NWS Wilmington, OH

Current Version | Previous Version | Graphics & Text | Print | Product List | Glossary On
Versions: 1 2 3 4 5 6 7 8 9 10 11 12 13 14 15 16 17 18 19 20 21 22 23 24 25 26 27 28 29 30 31 32 33
000
FTUS41 KILN 011100
TAFCVG
TAF
KCVG 011137Z 0112/0218 27004KT 1SM BR SCT004
      TEMPO 0112/0113 2SM BR BKN010
     FM011300 33004KT 3SM BR SCT040 BKN250
     FM011500 32007KT P6SM SCT040 BKN250
     FM020000 02004KT P6SM SCT050 SCT120 BKN250
     FM020600 09005KT P6SM BKN050
     FM021200 09005KT P6SM VCSH OVC040=

USA.gov is the U.S. government's official web portal to all federal, state and local government web resources and services.